Time;durP1;ratioP1;P1;durP2;ratioP2;P2;SDS_P1;SDS_P2;PMS_P1;PMS_P2;Temp;Humidity;BMP_temperature;BMP_pressure;BME280_temperature;BME280_humidity;BME280_pressure;Samples;Min_cycle;Max_cycle;Signal;HPM_P1;HPM_P2
2022/07/29 04:02:19;;;;;;;3.60;3.22;;;13.70;99.90;;;;;;5083092;23;20243;-70
2022/07/29 04:04:46;;;;;;;3.42;3.22;;;13.70;99.90;;;;;;4928748;29;20336;-72
2022/07/29 04:07:13;;;;;;;5.23;3.10;;;13.70;99.90;;;;;;4930503;29;20265;-71
2022/07/29 04:09:40;;;;;;;3.37;3.10;;;13.70;99.90;;;;;;4933058;29;20892;-72
2022/07/29 04:12:07;;;;;;;3.50;2.90;;;13.70;99.90;;;;;;4932700;29;20496;-70
2022/07/29 04:14:34;;;;;;;3.05;2.80;;;13.70;99.90;;;;;;4928418;29;20504;-72
2022/07/29 04:17:02;;;;;;;3.40;3.00;;;13.80;99.90;;;;;;4932965;29;20651;-71
2022/07/29 04:19:30;;;;;;;3.42;3.13;;;13.80;99.90;;;;;;4932289;29;20563;-71
2022/07/29 04:21:57;;;;;;;2.40;2.40;;;13.80;99.90;;;;;;4932283;29;20237;-72
2022/07/29 04:24:23;;;;;;;3.47;2.43;;;13.80;99.90;;;;;;4932239;29;20216;-72
2022/07/29 04:26:50;;;;;;;2.47;2.28;;;13.80;99.90;;;;;;4931658;29;20479;-73
2022/07/29 04:29:17;;;;;;;3.10;2.73;;;13.80;99.90;;;;;;4931967;29;20205;-70
2022/07/29 04:31:44;;;;;;;3.63;2.60;;;13.80;99.90;;;;;;4931707;29;20585;-72
2022/07/29 04:34:11;;;;;;;3.20;3.00;;;13.80;99.90;;;;;;4931608;29;20548;-72
2022/07/29 04:36:39;;;;;;;3.30;3.10;;;13.80;99.90;;;;;;4931082;29;20480;-73
2022/07/29 04:39:06;;;;;;;5.97;3.17;;;13.90;99.90;;;;;;4932869;29;20875;-70
2022/07/29 04:41:32;;;;;;;3.43;3.23;;;13.90;99.90;;;;;;4931213;29;20488;-72
2022/07/29 04:44:00;;;;;;;4.13;3.20;;;14.00;99.90;;;;;;4929769;29;20465;-70
2022/07/29 04:46:27;;;;;;;3.27;2.97;;;14.00;99.90;;;;;;4931415;29;21216;-71
2022/07/29 04:48:53;;;;;;;3.70;2.93;;;14.10;99.90;;;;;;4931750;29;20911;-72
2022/07/29 04:51:20;;;;;;;3.80;3.13;;;14.10;99.90;;;;;;4929571;29;20588;-72
2022/07/29 04:53:48;;;;;;;3.00;2.80;;;14.10;99.90;;;;;;4930007;29;20488;-72
2022/07/29 04:56:15;;;;;;;2.97;2.80;;;14.20;99.90;;;;;;4929737;29;20552;-72
2022/07/29 04:58:42;;;;;;;2.57;2.43;;;14.30;99.90;;;;;;4931081;29;20897;-71
2022/07/29 05:01:08;;;;;;;3.17;2.80;;;14.40;99.90;;;;;;4926891;29;21096;-71
2022/07/29 05:03:35;;;;;;;3.40;2.40;;;14.50;99.90;;;;;;4928968;29;20479;-72
2022/07/29 05:06:02;;;;;;;3.20;2.97;;;14.60;99.90;;;;;;4928543;29;20501;-71
2022/07/29 05:08:28;;;;;;;3.30;3.03;;;14.70;99.90;;;;;;4930774;29;20468;-71
2022/07/29 05:10:56;;;;;;;2.83;2.70;;;14.70;99.90;;;;;;4930836;29;20496;-71
2022/07/29 05:13:23;;;;;;;3.20;2.67;;;14.70;99.90;;;;;;4930933;29;20550;-71
2022/07/29 05:15:50;;;;;;;3.20;2.87;;;14.80;99.90;;;;;;4931706;29;20479;-69
2022/07/29 05:18:17;;;;;;;3.83;3.00;;;14.80;99.90;;;;;;4932204;29;20504;-71
2022/07/29 05:20:43;;;;;;;3.27;3.07;;;14.80;99.90;;;;;;4931728;29;21021;-72
2022/07/29 05:23:12;;;;;;;2.90;2.80;;;14.80;99.90;;;;;;4930060;29;20477;-70
2022/07/29 05:25:39;;;;;;;4.60;2.60;;;14.90;99.90;;;;;;4932697;29;20482;-71
2022/07/29 05:28:07;;;;;;;4.67;3.10;;;15.00;99.90;;;;;;4932230;29;20512;-71
2022/07/29 05:30:34;;;;;;;2.50;2.50;;;15.00;99.90;;;;;;4932040;29;20550;-71
2022/07/29 05:33:00;;;;;;;3.80;3.00;;;15.10;99.90;;;;;;4929970;29;20501;-70
2022/07/29 05:35:27;;;;;;;3.30;3.00;;;15.10;99.90;;;;;;4932306;29;20476;-70
2022/07/29 05:37:54;;;;;;;2.90;2.70;;;15.20;99.90;;;;;;4932754;29;20949;-70
2022/07/29 05:40:21;;;;;;;4.70;3.40;;;15.20;99.90;;;;;;4931086;29;20855;-70
2022/07/29 05:42:47;;;;;;;3.03;2.83;;;15.20;99.90;;;;;;4931422;29;20498;-70
2022/07/29 05:45:15;;;;;;;4.17;2.40;;;15.20;99.90;;;;;;4931997;29;21129;-71
2022/07/29 05:47:42;;;;;;;4.20;3.07;;;15.20;99.90;;;;;;4930873;29;20526;-72
2022/07/29 05:50:09;;;;;;;4.30;3.90;;;15.30;99.90;;;;;;4931837;29;20554;-70
2022/07/29 05:52:36;;;;;;;3.63;3.33;;;15.30;99.90;;;;;;4928323;29;20487;-71
2022/07/29 05:55:05;;;;;;;3.70;2.80;;;15.30;99.90;;;;;;4927734;29;20818;-71
2022/07/29 05:57:32;;;;;;;2.57;2.53;;;15.30;99.90;;;;;;4932362;29;20585;-72
2022/07/29 05:59:59;;;;;;;2.97;2.87;;;15.40;99.90;;;;;;4934168;29;20474;-72
2022/07/29 06:02:27;;;;;;;3.00;2.67;;;15.40;99.90;;;;;;4930570;29;20506;-72
2022/07/29 06:04:53;;;;;;;2.43;2.37;;;15.50;99.90;;;;;;4933309;29;20696;-72
2022/07/29 06:07:20;;;;;;;3.03;2.63;;;15.50;99.90;;;;;;4932199;29;20536;-72
2022/07/29 06:09:47;;;;;;;2.53;2.30;;;15.60;99.90;;;;;;4932021;29;20983;-73
2022/07/29 06:12:14;;;;;;;3.57;2.60;;;15.60;99.90;;;;;;4933161;29;20725;-71
2022/07/29 06:14:41;;;;;;;3.30;3.03;;;15.70;99.90;;;;;;4931479;29;20863;-72
2022/07/29 06:17:07;;;;;;;3.03;2.77;;;15.70;99.90;;;;;;4932505;29;20475;-71
2022/07/29 06:19:36;;;;;;;3.13;2.70;;;15.70;99.90;;;;;;4932976;29;20471;-72
2022/07/29 06:22:03;;;;;;;3.20;3.00;;;15.80;99.90;;;;;;4930530;29;20558;-72
2022/07/29 06:24:30;;;;;;;3.37;2.60;;;15.90;99.90;;;;;;4933102;29;20537;-72
2022/07/29 06:26:57;;;;;;;5.03;3.30;;;16.00;99.90;;;;;;4933913;29;20468;-72
2022/07/29 06:29:24;;;;;;;4.60;2.77;;;16.10;99.90;;;;;;4929773;29;20610;-69
2022/07/29 06:31:50;;;;;;;3.13;2.93;;;16.20;99.90;;;;;;4927989;29;20487;-73
2022/07/29 06:34:17;;;;;;;2.77;2.57;;;16.30;99.90;;;;;;4932190;29;20497;-69
2022/07/29 06:36:45;;;;;;;4.73;3.47;;;16.40;99.90;;;;;;4931116;29;20466;-72
2022/07/29 06:39:12;;;;;;;3.80;3.30;;;16.50;99.90;;;;;;4933926;29;20472;-71
2022/07/29 06:41:38;;;;;;;2.50;2.40;;;16.60;99.90;;;;;;4933084;29;20491;-71
2022/07/29 06:44:05;;;;;;;2.70;2.50;;;16.60;99.90;;;;;;4937050;29;20467;-72
2022/07/29 06:46:32;;;;;;;4.43;2.47;;;16.70;99.90;;;;;;4933085;29;20570;-72
2022/07/29 06:49:01;;;;;;;4.57;2.73;;;16.80;99.90;;;;;;4928863;29;20535;-71
2022/07/29 06:51:28;;;;;;;2.30;2.10;;;16.80;99.90;;;;;;4932777;29;20495;-72
2022/07/29 06:53:57;;;;;;;2.53;2.43;;;16.80;99.90;;;;;;4929008;29;20867;-71
2022/07/29 06:56:23;;;;;;;2.77;2.67;;;16.80;99.90;;;;;;4927833;29;21029;-71
2022/07/29 06:58:50;;;;;;;3.13;2.20;;;16.80;99.90;;;;;;4928321;29;20478;-72
2022/07/29 07:01:17;;;;;;;2.60;2.50;;;16.90;99.90;;;;;;4931401;29;20614;-70
2022/07/29 07:03:44;;;;;;;2.30;2.20;;;16.90;99.90;;;;;;4933048;29;21008;-72
2022/07/29 07:06:11;;;;;;;2.70;2.50;;;17.00;99.90;;;;;;4930792;29;21067;-71
2022/07/29 07:08:37;;;;;;;2.23;2.23;;;17.00;99.90;;;;;;4933781;29;20472;-71
2022/07/29 07:11:06;;;;;;;3.20;2.80;;;17.10;99.90;;;;;;4930199;29;20496;-72
2022/07/29 07:13:34;;;;;;;2.70;2.60;;;17.10;99.90;;;;;;4929758;29;20594;-72
2022/07/29 07:16:01;;;;;;;2.90;2.70;;;17.20;99.90;;;;;;4930731;29;21104;-71
2022/07/29 07:18:28;;;;;;;3.20;3.00;;;17.30;99.90;;;;;;4932602;29;20480;-72
2022/07/29 07:20:55;;;;;;;3.87;2.80;;;17.40;99.90;;;;;;4931635;29;20579;-72
2022/07/29 07:23:22;;;;;;;6.13;2.67;;;17.30;99.90;;;;;;4929181;29;20475;-71
2022/07/29 07:25:48;;;;;;;3.70;2.60;;;17.40;99.90;;;;;;4932720;29;20464;-72
2022/07/29 07:28:16;;;;;;;2.50;2.37;;;17.50;99.90;;;;;;4932965;29;20476;-71
2022/07/29 07:30:43;;;;;;;4.23;2.90;;;17.70;99.90;;;;;;4930182;29;20495;-72
2022/07/29 07:33:10;;;;;;;2.93;2.47;;;17.90;99.90;;;;;;4929496;29;20531;-72
2022/07/29 07:35:37;;;;;;;2.90;2.63;;;18.10;99.90;;;;;;4929853;29;20493;-72
2022/07/29 07:38:05;;;;;;;3.30;3.00;;;18.40;99.90;;;;;;4931302;29;20673;-68
2022/07/29 07:40:32;;;;;;;3.40;2.60;;;18.70;99.90;;;;;;4931334;29;20591;-72
2022/07/29 07:42:59;;;;;;;4.43;2.83;;;19.00;99.90;;;;;;4932198;29;21250;-72
2022/07/29 07:45:27;;;;;;;2.63;2.30;;;19.20;99.90;;;;;;4927075;29;20469;-71
2022/07/29 07:47:54;;;;;;;3.03;2.40;;;19.40;99.90;;;;;;4932496;29;20482;-71
2022/07/29 07:50:20;;;;;;;4.30;2.53;;;19.70;99.90;;;;;;4930180;29;20478;-71
2022/07/29 07:52:49;;;;;;;2.70;2.50;;;20.10;99.90;;;;;;4933228;29;20486;-70
2022/07/29 07:55:16;;;;;;;2.50;2.40;;;20.50;99.90;;;;;;4932362;29;20491;-71
2022/07/29 07:57:43;;;;;;;2.40;2.27;;;20.60;99.90;;;;;;4929671;29;20856;-71
2022/07/29 08:00:11;;;;;;;2.43;2.20;;;20.90;99.90;;;;;;4932324;29;20501;-70
2022/07/29 08:02:40;;;;;;;2.30;2.20;;;21.00;99.90;;;;;;4933415;29;20567;-69
2022/07/29 08:05:07;;;;;;;2.63;2.53;;;21.00;99.90;;;;;;4927681;29;20801;-69
2022/07/29 08:07:35;;;;;;;2.37;2.13;;;20.80;99.90;;;;;;4928961;29;20477;-68
2022/07/29 08:10:02;;;;;;;2.43;2.30;;;20.80;99.90;;;;;;4930326;29;20555;-69
2022/07/29 08:12:28;;;;;;;4.03;2.90;;;20.90;99.90;;;;;;4933226;29;20476;-68
2022/07/29 08:14:55;;;;;;;2.57;2.47;;;20.90;99.90;;;;;;4927967;29;20500;-70
2022/07/29 08:17:22;;;;;;;2.13;1.97;;;21.00;99.90;;;;;;4933047;29;20463;-71
2022/07/29 08:19:50;;;;;;;2.23;2.10;;;21.10;99.90;;;;;;4929479;29;20495;-70
2022/07/29 08:22:17;;;;;;;2.63;2.50;;;21.10;99.90;;;;;;4931929;29;20495;-69
2022/07/29 08:24:43;;;;;;;2.10;2.00;;;21.30;99.90;;;;;;4933193;29;20774;-70
2022/07/29 08:27:10;;;;;;;2.37;2.27;;;21.40;99.90;;;;;;4929910;29;20475;-70
2022/07/29 08:29:38;;;;;;;2.40;2.10;;;21.40;99.90;;;;;;4931937;29;20542;-70
2022/07/29 08:32:06;;;;;;;2.37;2.27;;;21.40;99.90;;;;;;4931934;29;20495;-70
2022/07/29 08:34:33;;;;;;;2.70;2.60;;;21.40;99.90;;;;;;4931210;29;20483;-70
2022/07/29 08:37:01;;;;;;;2.37;2.17;;;21.40;99.90;;;;;;4933339;29;20531;-70
2022/07/29 08:39:27;;;;;;;3.10;2.90;;;21.50;99.90;;;;;;4931194;29;20484;-70
2022/07/29 08:41:54;;;;;;;2.93;2.47;;;21.50;99.90;;;;;;4932854;29;20494;-72
2022/07/29 08:44:21;;;;;;;3.10;2.20;;;21.50;99.90;;;;;;4930657;29;20993;-71
2022/07/29 08:46:49;;;;;;;2.40;2.30;;;21.50;99.90;;;;;;4931126;29;20522;-72
2022/07/29 08:49:16;;;;;;;2.90;2.70;;;21.50;99.90;;;;;;4933826;29;20467;-72
2022/07/29 08:51:43;;;;;;;2.67;2.57;;;21.50;99.90;;;;;;4934957;29;20579;-73
2022/07/29 08:54:16;;;;;;;2.73;2.50;;;21.50;99.90;;;;;;4932722;29;20470;-73
2022/07/29 08:56:43;;;;;;;1.93;1.93;;;21.70;99.90;;;;;;4932921;29;20470;-69
2022/07/29 08:59:10;;;;;;;2.30;2.20;;;21.80;99.90;;;;;;4933602;29;20479;-71
2022/07/29 09:01:39;;;;;;;2.80;2.60;;;21.80;99.90;;;;;;4933975;29;20513;-72
2022/07/29 09:04:11;;;;;;;2.40;2.30;;;22.00;99.90;;;;;;4934237;29;20468;-69
2022/07/29 09:06:43;;;;;;;2.20;2.10;;;22.10;99.90;;;;;;4929630;29;20476;-72
2022/07/29 09:09:13;;;;;;;5.53;2.80;;;22.30;99.90;;;;;;4931304;29;20480;-71
2022/07/29 09:11:40;;;;;;;4.00;2.50;;;22.40;99.90;;;;;;4931429;29;20491;-71
2022/07/29 09:14:07;;;;;;;2.97;2.27;;;22.40;99.90;;;;;;4927552;29;20939;-72
2022/07/29 09:16:52;;;;;;;3.13;2.80;;;22.40;99.90;;;;;;4931670;29;20475;-72
2022/07/29 09:19:27;;;;;;;2.27;2.17;;;22.50;99.90;;;;;;4927811;29;21061;-71
2022/07/29 09:21:57;;;;;;;3.50;2.40;;;22.50;99.90;;;;;;4923957;29;20523;-72
2022/07/29 09:24:38;;;;;;;2.53;2.33;;;22.50;99.90;;;;;;4926936;29;20473;-73
2022/07/29 09:27:10;;;;;;;2.77;2.53;;;22.60;99.90;;;;;;4926841;29;20507;-73
2022/07/29 09:29:37;;;;;;;3.00;2.80;;;22.60;99.90;;;;;;4929875;29;20594;-73
2022/07/29 09:32:09;;;;;;;1.80;1.80;;;22.70;99.90;;;;;;4934146;29;20547;-72
2022/07/29 09:34:35;;;;;;;3.80;2.47;;;22.90;99.90;;;;;;4933297;29;20492;-74
2022/07/29 09:37:03;;;;;;;5.03;2.40;;;23.10;99.90;;;;;;4932750;29;20630;-71
2022/07/29 09:39:33;;;;;;;2.50;2.40;;;23.20;99.90;;;;;;4934570;29;20954;-72
2022/07/29 09:42:03;;;;;;;2.37;2.27;;;23.40;99.90;;;;;;4935698;29;21027;-73
2022/07/29 09:44:43;;;;;;;2.43;2.10;;;23.60;99.90;;;;;;4935039;29;20870;-72
2022/07/29 09:47:09;;;;;;;3.20;2.37;;;23.70;99.90;;;;;;4929197;29;20500;-72
2022/07/29 09:49:50;;;;;;;4.33;2.03;;;23.80;99.90;;;;;;4932884;29;20962;-72
2022/07/29 09:52:17;;;;;;;2.80;2.27;;;23.90;99.90;;;;;;4934427;29;20489;-72
2022/07/29 09:54:45;;;;;;;2.10;2.00;;;24.00;99.90;;;;;;4930757;29;20489;-71
2022/07/29 09:57:25;;;;;;;2.13;2.03;;;24.10;99.90;;;;;;4930735;29;20474;-73
2022/07/29 09:59:58;;;;;;;2.47;2.37;;;24.10;99.90;;;;;;4932062;29;20477;-73
2022/07/29 10:02:30;;;;;;;1.80;1.80;;;24.00;99.90;;;;;;4934234;29;20955;-70
2022/07/29 10:04:56;;;;;;;1.57;1.57;;;24.10;99.90;;;;;;4927954;29;21007;-73
2022/07/29 10:07:23;;;;;;;4.03;2.17;;;24.20;99.90;;;;;;4931725;29;20520;-71
2022/07/29 10:09:58;;;;;;;1.90;1.80;;;24.20;99.90;;;;;;4931796;29;20466;-69
2022/07/29 10:12:25;;;;;;;2.43;2.10;;;24.30;99.90;;;;;;4934712;29;20888;-71
2022/07/29 10:14:52;;;;;;;3.33;2.57;;;24.40;99.90;;;;;;4933660;29;20500;-70
2022/07/29 10:17:19;;;;;;;2.50;2.30;;;24.40;99.90;;;;;;4930592;29;20819;-72
2022/07/29 10:19:46;;;;;;;3.30;1.73;;;24.50;99.90;;;;;;4934487;29;20521;-70
2022/07/29 10:22:13;;;;;;;2.40;2.30;;;24.60;99.90;;;;;;4932212;29;20493;-71
2022/07/29 10:24:40;;;;;;;2.17;1.97;;;24.70;99.90;;;;;;4931283;29;20984;-71
2022/07/29 10:27:09;;;;;;;2.20;2.10;;;24.80;99.90;;;;;;4933409;29;20795;-71
2022/07/29 10:29:36;;;;;;;2.07;1.97;;;24.90;99.90;;;;;;4933102;29;20481;-68
2022/07/29 10:32:35;;;;;;;2.10;2.00;;;25.00;99.20;;;;;;4928815;29;20486;-72
2022/07/29 10:35:36;;;;;;;2.40;2.10;;;25.10;99.40;;;;;;4928848;29;20502;-71
2022/07/29 10:38:21;;;;;;;2.73;2.17;;;25.20;98.80;;;;;;4912201;29;20481;-71
2022/07/29 10:43:47;;;;;;;1.87;1.77;;;25.20;97.90;;;;;;4933992;29;20475;-70
2022/07/29 10:46:15;;;;;;;1.73;1.73;;;25.10;97.60;;;;;;4932142;29;20875;-70
2022/07/29 10:49:09;;;;;;;2.20;2.10;;;25.10;96.60;;;;;;4934778;29;20812;-71
2022/07/29 10:52:02;;;;;;;2.13;2.00;;;25.10;96.30;;;;;;4933245;29;20593;-70
2022/07/29 10:54:42;;;;;;;6.23;2.40;;;25.10;96.10;;;;;;4931132;29;20514;-71
2022/07/29 10:57:19;;;;;;;2.20;2.10;;;25.10;95.50;;;;;;4935157;29;20637;-71
2022/07/29 10:59:48;;;;;;;3.13;2.20;;;25.00;95.60;;;;;;4930518;29;20469;-71
2022/07/29 11:02:44;;;;;;;2.13;2.03;;;25.10;94.50;;;;;;4924602;29;20576;-71
2022/07/29 11:05:12;;;;;;;1.97;1.87;;;25.20;94.30;;;;;;4929539;29;20494;-71
2022/07/29 11:07:41;;;;;;;2.13;2.03;;;25.30;93.80;;;;;;4931479;29;20462;-71
2022/07/29 11:10:24;;;;;;;2.00;1.90;;;25.30;93.40;;;;;;4932924;29;20525;-70
2022/07/29 11:12:52;;;;;;;1.70;1.70;;;25.40;93.80;;;;;;4926546;29;20525;-71
2022/07/29 11:15:21;;;;;;;2.43;2.33;;;25.40;92.90;;;;;;4933180;29;20835;-71
2022/07/29 11:18:08;;;;;;;2.27;1.90;;;25.30;92.70;;;;;;4934435;29;20521;-70
2022/07/29 11:20:37;;;;;;;2.00;1.90;;;25.30;92.50;;;;;;4934017;29;20486;-70
2022/07/29 11:23:20;;;;;;;2.50;2.33;;;25.30;92.20;;;;;;4933959;29;20466;-70
2022/07/29 11:26:07;;;;;;;1.70;1.70;;;25.40;92.50;;;;;;4933291;29;20466;-71
2022/07/29 11:28:36;;;;;;;1.93;1.70;;;25.30;91.90;;;;;;4934694;29;20457;-70
2022/07/29 11:31:05;;;;;;;2.10;1.50;;;25.30;92.00;;;;;;4934544;29;20485;-71
2022/07/29 11:33:33;;;;;;;1.70;1.70;;;25.40;91.00;;;;;;4931597;29;20804;-71
2022/07/29 11:36:11;;;;;;;1.63;1.53;;;25.50;91.10;;;;;;4928775;29;20513;-71
2022/07/29 11:38:38;;;;;;;2.23;1.60;;;25.50;91.00;;;;;;4931428;29;21031;-71
2022/07/29 11:41:24;;;;;;;1.50;1.50;;;25.60;90.80;;;;;;4924706;29;20494;-72
2022/07/29 11:43:52;;;;;;;2.00;1.90;;;25.70;90.60;;;;;;4927573;29;20499;-72
2022/07/29 11:46:45;;;;;;;2.20;1.80;;;25.70;90.80;;;;;;4930898;29;20470;-71
2022/07/29 11:49:13;;;;;;;2.30;1.83;;;25.60;90.40;;;;;;4931383;29;20883;-71
2022/07/29 11:51:40;;;;;;;3.40;2.20;;;25.80;91.40;;;;;;4931720;29;20647;-71
2022/07/29 11:54:12;;;;;;;1.90;1.80;;;25.70;90.30;;;;;;4932403;29;20478;-71
2022/07/29 11:56:43;;;;;;;2.20;2.03;;;25.70;90.30;;;;;;4932008;29;20580;-71
2022/07/29 11:59:10;;;;;;;3.53;1.70;;;25.80;90.80;;;;;;4931063;29;20739;-71
2022/07/29 12:01:53;;;;;;;2.13;2.10;;;26.00;90.70;;;;;;4929681;29;20501;-71
2022/07/29 12:04:19;;;;;;;3.90;1.73;;;26.00;90.10;;;;;;4927942;29;20548;-71
2022/07/29 12:06:50;;;;;;;4.53;1.90;;;26.20;90.00;;;;;;4930669;29;20826;-71
2022/07/29 12:09:18;;;;;;;2.53;2.33;;;26.30;89.80;;;;;;4927283;29;20485;-71
2022/07/29 12:11:45;;;;;;;3.37;1.97;;;26.30;89.70;;;;;;4932789;29;20585;-71
2022/07/29 12:14:25;;;;;;;3.27;2.30;;;26.40;88.50;;;;;;4927759;29;20475;-71
2022/07/29 12:16:53;;;;;;;1.97;1.87;;;26.40;88.80;;;;;;4930020;29;20923;-71
2022/07/29 12:19:20;;;;;;;2.00;1.90;;;26.50;87.80;;;;;;4929221;29;20528;-72
2022/07/29 12:21:48;;;;;;;1.93;1.83;;;26.60;87.70;;;;;;4929208;29;20489;-71
2022/07/29 12:24:16;;;;;;;2.03;1.83;;;26.50;87.00;;;;;;4929336;29;20780;-71
2022/07/29 12:26:50;;;;;;;2.97;1.73;;;26.60;87.00;;;;;;4933098;29;20489;-71
2022/07/29 12:29:17;;;;;;;2.03;1.80;;;26.70;87.50;;;;;;4932265;29;20504;-71
2022/07/29 12:31:46;;;;;;;2.20;1.60;;;26.80;86.60;;;;;;4933042;29;20521;-71
2022/07/29 12:34:16;;;;;;;1.83;1.73;;;26.90;85.90;;;;;;4933202;29;20466;-71
2022/07/29 12:36:46;;;;;;;1.60;1.50;;;26.90;85.50;;;;;;4933027;29;20494;-71
2022/07/29 12:39:13;;;;;;;2.13;2.00;;;26.90;85.10;;;;;;4933134;29;20492;-72
2022/07/29 12:41:40;;;;;;;3.10;1.80;;;27.00;85.40;;;;;;4932971;29;20482;-71
2022/07/29 12:44:07;;;;;;;1.80;1.80;;;27.10;83.90;;;;;;4932842;29;20470;-71
2022/07/29 12:46:34;;;;;;;5.80;2.77;;;27.00;83.80;;;;;;4925266;29;20550;-71
2022/07/29 12:49:00;;;;;;;2.13;1.90;;;27.10;84.50;;;;;;4933183;29;20955;-71
2022/07/29 12:51:33;;;;;;;2.17;2.07;;;27.20;84.30;;;;;;4932517;29;20487;-72
2022/07/29 12:54:05;;;;;;;1.67;1.67;;;27.40;84.80;;;;;;4932826;29;20517;-71
2022/07/29 12:56:32;;;;;;;3.93;1.97;;;27.40;83.10;;;;;;4933039;29;21003;-71
2022/07/29 12:58:59;;;;;;;2.17;2.07;;;27.40;83.70;;;;;;4933177;29;20477;-72
2022/07/29 13:01:27;;;;;;;2.17;2.07;;;27.40;83.00;;;;;;4931339;29;20508;-72
2022/07/29 13:03:57;;;;;;;1.87;1.77;;;27.50;83.00;;;;;;4933021;29;20469;-72
2022/07/29 13:06:33;;;;;;;1.77;1.77;;;27.50;82.50;;;;;;4934519;29;20462;-71
2022/07/29 13:09:10;;;;;;;2.93;1.90;;;27.60;82.70;;;;;;4937265;29;20481;-71
2022/07/29 13:11:39;;;;;;;2.30;2.20;;;27.60;82.30;;;;;;4937240;29;20478;-71
2022/07/29 13:14:08;;;;;;;2.00;1.90;;;27.60;82.00;;;;;;4935857;29;20478;-72
2022/07/29 13:16:35;;;;;;;2.63;2.20;;;27.50;81.40;;;;;;4939679;29;20850;-71
2022/07/29 13:19:07;;;;;;;1.83;1.83;;;27.60;82.40;;;;;;4939544;29;20533;-72
2022/07/29 13:21:36;;;;;;;2.97;2.83;;;27.60;81.80;;;;;;4940993;29;20493;-71
2022/07/29 13:24:03;;;;;;;2.77;2.13;;;27.70;81.60;;;;;;4938946;29;20469;-72
2022/07/29 13:26:30;;;;;;;2.00;2.00;;;27.50;80.50;;;;;;4936764;29;20465;-71
2022/07/29 13:28:57;;;;;;;2.23;2.10;;;27.50;81.60;;;;;;4937269;29;20577;-71
2022/07/29 13:31:24;;;;;;;3.50;2.07;;;27.50;80.30;;;;;;4935965;29;20490;-71
2022/07/29 13:33:50;;;;;;;1.97;1.87;;;27.60;79.60;;;;;;4935252;29;20589;-72
2022/07/29 13:36:17;;;;;;;2.30;2.20;;;27.60;78.90;;;;;;4932969;29;20804;-71
2022/07/29 13:38:45;;;;;;;2.93;1.80;;;27.60;76.80;;;;;;4936317;29;20833;-72
2022/07/29 13:41:12;;;;;;;3.80;2.30;;;27.60;76.90;;;;;;4936023;29;20486;-71
2022/07/29 13:43:38;;;;;;;2.70;2.53;;;27.60;76.80;;;;;;4936220;29;20467;-71
2022/07/29 13:46:05;;;;;;;2.53;2.30;;;27.60;76.70;;;;;;4935296;29;20458;-71
2022/07/29 13:48:32;;;;;;;2.30;2.20;;;27.50;76.40;;;;;;4936206;29;20462;-71
2022/07/29 13:50:59;;;;;;;2.63;2.40;;;27.50;76.30;;;;;;4933537;29;20506;-71
2022/07/29 13:53:25;;;;;;;2.40;2.30;;;27.50;76.70;;;;;;4935858;29;20461;-71
2022/07/29 13:55:53;;;;;;;2.30;2.20;;;27.50;76.60;;;;;;4935402;29;20508;-71
2022/07/29 13:58:20;;;;;;;2.33;2.23;;;27.40;75.70;;;;;;4936103;29;20815;-71
2022/07/29 14:00:47;;;;;;;2.30;2.30;;;27.40;75.70;;;;;;4935126;29;20504;-71
2022/07/29 14:03:13;;;;;;;2.57;2.37;;;27.40;75.60;;;;;;4935776;29;20498;-71
2022/07/29 14:05:40;;;;;;;3.57;2.00;;;27.40;75.70;;;;;;4935129;29;20537;-70
2022/07/29 14:08:07;;;;;;;1.90;1.90;;;27.40;75.30;;;;;;4934298;29;20529;-71
2022/07/29 14:10:33;;;;;;;2.57;2.10;;;27.40;75.70;;;;;;4935238;29;20979;-71
2022/07/29 14:13:02;;;;;;;2.60;2.43;;;27.40;74.80;;;;;;4935726;29;20524;-71
2022/07/29 14:15:29;;;;;;;2.30;2.20;;;27.40;74.40;;;;;;4929885;29;20475;-71
2022/07/29 14:17:55;;;;;;;2.37;2.17;;;27.30;73.80;;;;;;4932778;29;21014;-71
2022/07/29 14:20:22;;;;;;;2.10;2.10;;;27.10;74.20;;;;;;4934070;29;20896;-71
2022/07/29 14:22:49;;;;;;;1.87;1.87;;;27.00;75.20;;;;;;4934533;29;20889;-71
2022/07/29 14:25:15;;;;;;;2.27;2.20;;;27.00;74.50;;;;;;4935672;29;20466;-71
2022/07/29 14:27:42;;;;;;;2.60;2.40;;;27.10;74.80;;;;;;4935183;29;20462;-71
2022/07/29 14:30:12;;;;;;;2.47;2.33;;;27.10;74.00;;;;;;4934815;29;20840;-71
2022/07/29 14:32:38;;;;;;;2.00;1.90;;;27.10;74.20;;;;;;4935246;29;20505;-71
2022/07/29 14:35:06;;;;;;;2.50;2.27;;;27.20;75.50;;;;;;4933504;29;20544;-71
2022/07/29 14:37:33;;;;;;;2.20;2.17;;;27.30;74.90;;;;;;4935309;29;20494;-71
2022/07/29 14:40:03;;;;;;;2.53;2.33;;;27.40;74.20;;;;;;4935091;29;20808;-71
2022/07/29 14:42:30;;;;;;;2.47;2.47;;;27.60;74.80;;;;;;4935454;29;20485;-71
2022/07/29 14:44:57;;;;;;;2.67;2.57;;;27.70;72.60;;;;;;4934518;29;20901;-71
2022/07/29 14:47:25;;;;;;;2.60;2.40;;;27.70;73.50;;;;;;4929471;29;20877;-71
2022/07/29 14:49:52;;;;;;;3.00;2.80;;;27.80;71.90;;;;;;4934369;29;20466;-71
2022/07/29 14:52:19;;;;;;;2.57;2.47;;;27.80;70.60;;;;;;4933425;29;20494;-71
2022/07/29 14:54:45;;;;;;;2.50;2.40;;;27.90;71.60;;;;;;4934733;29;20462;-71
2022/07/29 14:57:12;;;;;;;2.63;2.50;;;28.00;71.00;;;;;;4933394;29;20491;-71
2022/07/29 14:59:39;;;;;;;2.20;2.20;;;27.90;69.90;;;;;;4934026;29;20518;-71
2022/07/29 15:02:05;;;;;;;4.20;2.20;;;27.80;69.90;;;;;;4934783;29;20561;-70
2022/07/29 15:04:34;;;;;;;2.50;2.30;;;27.70;69.20;;;;;;4933465;29;20545;-71
2022/07/29 15:07:01;;;;;;;2.27;2.13;;;27.60;70.10;;;;;;4932947;29;20486;-71
2022/07/29 15:09:27;;;;;;;2.77;2.53;;;27.60;69.60;;;;;;4934485;29;20523;-71
2022/07/29 15:11:54;;;;;;;2.60;2.50;;;27.70;70.20;;;;;;4935131;29;20494;-71
2022/07/29 15:14:21;;;;;;;2.40;2.20;;;27.90;68.70;;;;;;4933675;29;20541;-71
2022/07/29 15:16:48;;;;;;;2.27;2.27;;;27.70;67.30;;;;;;4934541;29;20492;-71
2022/07/29 15:19:15;;;;;;;2.70;2.60;;;27.70;69.20;;;;;;4934416;29;20477;-70
2022/07/29 15:21:43;;;;;;;2.67;2.43;;;27.60;68.60;;;;;;4933304;29;20486;-71
2022/07/29 15:24:09;;;;;;;3.33;2.43;;;27.60;68.50;;;;;;4932967;29;20474;-71
2022/07/29 15:26:36;;;;;;;2.33;2.10;;;27.50;69.30;;;;;;4934556;29;20462;-71
2022/07/29 15:29:03;;;;;;;2.03;1.90;;;27.40;70.20;;;;;;4933489;29;20529;-71
2022/07/29 15:31:29;;;;;;;3.13;2.20;;;27.30;70.30;;;;;;4933774;29;20493;-70
2022/07/29 15:33:56;;;;;;;3.53;2.27;;;27.20;70.20;;;;;;4933741;29;20832;-71
2022/07/29 15:36:23;;;;;;;2.47;2.33;;;27.10;70.50;;;;;;4930225;29;20516;-71
2022/07/29 15:38:54;;;;;;;2.53;2.40;;;27.00;70.20;;;;;;4932650;29;20534;-71
2022/07/29 15:41:21;;;;;;;2.07;1.97;;;26.90;70.70;;;;;;4931987;29;20589;-72
2022/07/29 15:43:47;;;;;;;2.30;2.20;;;27.10;71.30;;;;;;4934110;29;20545;-72
2022/07/29 15:49:00;;;;;;;2.30;2.30;;;27.40;71.50;;;;;;4932928;29;20601;-72
2022/07/29 15:51:26;;;;;;;2.33;2.23;;;27.50;71.50;;;;;;4932167;29;20501;-72
2022/07/29 15:53:55;;;;;;;2.30;2.20;;;27.60;69.30;;;;;;4934080;29;20979;-72
2022/07/29 15:56:22;;;;;;;2.93;2.37;;;27.60;70.00;;;;;;4933522;29;20485;-72
2022/07/29 15:58:49;;;;;;;2.10;2.10;;;27.60;69.30;;;;;;4933920;29;20466;-71
2022/07/29 16:01:15;;;;;;;2.60;2.33;;;27.70;68.90;;;;;;4933068;29;20605;-72
2022/07/29 16:03:42;;;;;;;2.13;2.13;;;27.60;76.30;;;;;;4933916;29;20465;-72
2022/07/29 16:06:09;;;;;;;2.33;2.20;;;27.50;82.20;;;;;;4931393;29;20891;-72
2022/07/29 16:08:36;;;;;;;2.70;2.50;;;27.30;85.80;;;;;;4933511;29;20477;-72
2022/07/29 16:11:04;;;;;;;6.33;2.50;;;27.10;85.50;;;;;;4930090;29;20557;-71
2022/07/29 16:13:31;;;;;;;3.57;3.27;;;26.90;88.50;;;;;;4927676;29;20476;-72
2022/07/29 16:15:58;;;;;;;6.10;2.47;;;26.90;90.60;;;;;;4926587;29;20505;-72
2022/07/29 16:18:24;;;;;;;2.73;2.63;;;26.70;90.50;;;;;;4931680;29;20519;-72
2022/07/29 16:20:51;;;;;;;2.60;2.47;;;26.70;90.90;;;;;;4930784;29;20496;-72
2022/07/29 16:23:18;;;;;;;2.67;2.47;;;26.60;90.90;;;;;;4926601;29;20800;-72
2022/07/29 16:25:45;;;;;;;3.43;2.60;;;26.60;90.90;;;;;;4924612;29;20474;-71
2022/07/29 16:28:13;;;;;;;2.60;2.40;;;26.50;91.00;;;;;;4931355;29;20521;-71
2022/07/29 16:30:39;;;;;;;3.80;2.50;;;26.50;91.60;;;;;;4930832;29;20568;-71
2022/07/29 16:33:06;;;;;;;2.50;2.30;;;26.50;92.20;;;;;;4931120;29;20500;-71
2022/07/29 16:35:36;;;;;;;3.33;2.73;;;26.50;93.10;;;;;;4929428;29;20520;-71
2022/07/29 16:38:02;;;;;;;5.17;2.70;;;26.60;93.40;;;;;;4928337;29;20608;-71
2022/07/29 16:40:29;;;;;;;6.00;4.03;;;26.50;94.00;;;;;;4932036;29;20474;-71
2022/07/29 16:42:56;;;;;;;4.17;3.30;;;26.60;94.30;;;;;;4932097;29;20527;-72
2022/07/29 16:45:24;;;;;;;2.63;2.43;;;26.40;94.50;;;;;;4931592;29;20486;-71
2022/07/29 16:47:51;;;;;;;3.27;2.47;;;26.40;94.80;;;;;;4930922;29;20525;-71
2022/07/29 16:50:17;;;;;;;2.63;1.93;;;26.30;95.00;;;;;;4930299;29;20474;-71
2022/07/29 16:52:44;;;;;;;2.50;2.30;;;26.30;95.10;;;;;;4929950;29;20581;-71
2022/07/29 16:55:11;;;;;;;6.53;3.00;;;26.40;95.00;;;;;;4931557;29;20552;-71
2022/07/29 16:57:37;;;;;;;2.70;2.50;;;26.30;94.50;;;;;;4931760;29;20530;-71
2022/07/29 17:00:06;;;;;;;2.90;2.70;;;26.30;94.50;;;;;;4930466;29;20481;-72
2022/07/29 17:02:34;;;;;;;2.83;2.73;;;26.20;94.10;;;;;;4931241;29;20673;-72